TNCMMDPC

Guest
Details From TNCM - St Maarten - Princess Juliana Intl
To MDPC - Punta Cana Intl
Flight Number -
Tags generated
Created
Modified
Stats Distance 303 nm / 561 km
Max Altitude 34,000 ft / 10,363 m
Waypoints 3
Social Downloads 1
Likes 0
Share VATSIM

Download

Looking for another format? Having issues loading an existing format? Contact us
Advertisement - Login to hide

Notes

Basic altitude profile: - Ascent Rate: 2500ft/min - Ascent Speed: 200kts - Cruise Altitude: 2500ft - Cruise Speed: 250kts - Descent Rate: 1500ft/min - Descent Speed: 200kts Options: - Use NATs: no - Use PACOTS: no - Use low airways: no - Use high airways: no

Route

TNCM 1800N06500W MDPC

ID Type Via Altitude Latitude Longitude Leg Dist Tot Dist Heading (true) Name
O TNCM APT - 0 ft / 0 m 18.04089˚ -63.10897˚ - 0 nm - St Maarten - Princess Juliana Intl
1800N06500W LATLON - 34,000 ft / 10,363 m 18.00000˚ -65.00000˚ 108 nm 108 nm 269° / 268° -
O MDPC APT - 0 ft / 0 m 18.57057˚ -68.36613˚ 194 nm 303 nm 281° / 280° Punta Cana Intl

Altitude Profile

Advertisement - Login to hide

Weather


0- 5 10 15 20 25 30 35+ Temperature / ° C

Clouds and Precipitation
Forecast for 2017-12-13 18:00 UTC. Updated 2 hours ago

Ground ~20,000 ft ~40,000 ft Winds

TNCM

Details ICAO TNCM (SXM)
Name St Maarten - Princess Juliana Intl
Region Caribbean Netherlands, Aruba, Curaçao, Sint Maarten
Timezone Unknown (UTC+0.0)
Stats Elevation 12 ft / 4 m (AMSL)
Location 18.040889° -63.108974°
Runways 1
Magnetic Variation 14.325° W

METAR

TNCM 131400Z 13007KT 100V160 9999 SCT020 28/22 Q1018 NOSIG RMK A3006

Decode

TAF

TAF TNCM 131140Z 1312/1412 12005KT P6SM FEW018 FM131400 14010KT P6SM VCSH FEW020 FM132300 09006KT P6SM SCT022

Decode

Departure Runways

ID Width Length Bearing (true) Bearing (mag) Surface Threshold Offset Overrun Length
10 148 ft / 45 m 7,464 ft / 2,275 m 81.43° 95.75° Asphalt 0 ft / 0 m 151 ft / 46 m
28 148 ft / 45 m 7,464 ft / 2,275 m 261.44° 275.76° Asphalt 397 ft / 121 m 0 ft / 0 m

MDPC

Details ICAO MDPC (PUJ)
Name Punta Cana Intl
Region Dominican Republic
Timezone America/Santo_Domingo (UTC-4.0)
Stats Elevation 46 ft / 14 m (AMSL)
Location 18.570574° -68.366130°
Runways 2
Magnetic Variation 12.179° W

METAR

MDPC 131400Z 21008KT 9999 FEW020 SCT070 BKN300 28/24 Q1017 NOSIG

Decode

TAF

Not found

Destination Runways

ID Width Length Bearing (true) Bearing (mag) Surface Threshold Offset Overrun Length
08 148 ft / 45 m 10,110 ft / 3,082 m 74.20° 86.38° Asphalt 0 ft / 0 m 374 ft / 114 m
09 148 ft / 45 m 10,163 ft / 3,098 m 84.79° 96.97° Asphalt 0 ft / 0 m 374 ft / 114 m
26 148 ft / 45 m 10,110 ft / 3,082 m 254.21° 266.39° Asphalt 0 ft / 0 m 374 ft / 114 m
27 148 ft / 45 m 10,163 ft / 3,098 m 264.80° 276.98° Asphalt 0 ft / 0 m 374 ft / 114 m

Popular Alternatives